Langley, Arkansas
Current Conditions -  °F | °C
As of 5:53 AM on Tuesday 27 Jan 2015 (Local Time) from KMWT Reporting Station
Clear Clear  
Wind Chill: 36°   Ceiling: Unl
Heat Index: 36°   Visibility: 10mi
Dew Point: 32°   Wind: 0mph
Humidity: 86%   Direction: NA
Pressure: 30.05"   Gusts: NA
Location:  34.31°N, 93.84°W
Report Text: KMWT 271153Z AUTO 00000KT 10SM CLR 02/00 A3005 RMK AO2 SLP180 T00220000 10094 20022 53013
Loading
Personal Weather Stations






























Interactive Weather Map New forecast layout! Learn more

10-Day Weather Forecast

Advertisements
Track Severe Weather on mobile